Time;durP1;ratioP1;P1;durP2;ratioP2;P2;SDS_P1;SDS_P2;PMS_P1;PMS_P2;Temp;Humidity;BMP_temperature;BMP_pressure;BME280_temperature;BME280_humidity;BME280_pressure;Samples;Min_cycle;Max_cycle;Signal;HPM_P1;HPM_P2
2022/07/04 00:01:04;;;;;;;6.50;2.72;;;;;;;27.99;51.49;100772.69;4966202;28;20046;-77
2022/07/04 00:03:48;;;;;;;4.95;3.25;;;;;;;28.06;51.64;100766.97;4974314;28;20054;-77
2022/07/04 00:06:33;;;;;;;9.13;4.05;;;;;;;27.92;51.38;100755.31;4957727;28;20080;-78
2022/07/04 00:09:17;;;;;;;11.80;3.30;;;;;;;28.08;51.19;100760.94;4954747;28;20058;-77
2022/07/04 00:12:03;;;;;;;14.10;3.15;;;;;;;27.96;51.90;100764.41;4967430;28;20043;-77
2022/07/04 00:14:47;;;;;;;7.03;3.13;;;;;;;27.89;52.53;100758.94;4965139;28;20043;-76
2022/07/04 00:17:33;;;;;;;8.27;4.13;;;;;;;27.55;53.73;100760.06;4959066;28;20420;-77
2022/07/04 00:20:18;;;;;;;14.27;3.58;;;;;;;27.32;54.54;100764.91;4955046;28;20050;-78
2022/07/04 00:23:02;;;;;;;11.52;3.25;;;;;;;27.15;54.38;100766.81;4962225;28;20035;-77
2022/07/04 00:25:47;;;;;;;8.90;3.15;;;;;;;27.20;54.47;100763.53;4972274;28;20047;-76
2022/07/04 00:28:32;;;;;;;12.68;4.60;;;;;;;27.09;54.80;100763.72;4947991;28;20519;-78
2022/07/04 00:31:17;;;;;;;7.55;3.53;;;;;;;27.27;54.36;100776.56;4963818;28;20488;-78
2022/07/04 00:34:03;;;;;;;5.82;3.67;;;;;;;27.40;53.97;100774.72;4964158;28;20527;-77
2022/07/04 00:36:47;;;;;;;4.95;3.00;;;;;;;27.52;53.40;100774.13;4963358;28;20054;-77
2022/07/04 00:39:32;;;;;;;10.18;3.75;;;;;;;27.62;53.24;100779.50;4953422;28;20054;-77
2022/07/04 00:42:16;;;;;;;7.70;3.20;;;;;;;27.69;52.83;100772.94;4963334;28;20047;-77
2022/07/04 00:45:01;;;;;;;8.45;3.90;;;;;;;27.68;52.10;100767.81;4955137;29;20054;-77
2022/07/04 00:47:46;;;;;;;9.55;3.72;;;;;;;27.65;51.61;100758.28;4958908;28;20413;-77
2022/07/04 00:50:31;;;;;;;8.95;3.67;;;;;;;27.48;52.02;100762.97;4959013;28;20046;-77
2022/07/04 00:53:19;;;;;;;7.18;3.40;;;;;;;27.38;52.80;100758.38;4966841;28;20446;-77
2022/07/04 00:56:04;;;;;;;9.40;4.22;;;;;;;27.42;52.84;100761.91;4968451;28;20063;-77
2022/07/04 00:58:50;;;;;;;12.93;4.07;;;;;;;27.15;53.34;100762.03;4966090;28;20050;-76
2022/07/04 01:01:35;;;;;;;6.13;3.33;;;;;;;27.01;53.87;100756.69;4962435;28;20047;-77
2022/07/04 01:04:20;;;;;;;13.20;4.22;;;;;;;27.09;53.93;100760.13;4970004;28;20045;-76
2022/07/04 01:07:06;;;;;;;9.38;4.00;;;;;;;27.08;53.00;100755.75;4976371;28;20043;-77
2022/07/04 01:09:51;;;;;;;6.93;3.85;;;;;;;27.19;52.82;100750.78;4974721;28;20057;-77
2022/07/04 01:12:36;;;;;;;7.18;4.10;;;;;;;27.10;52.91;100742.97;4954295;29;20102;-78
2022/07/04 01:15:21;;;;;;;7.32;4.00;;;;;;;26.94;53.76;100740.06;4957855;28;20050;-77
2022/07/04 01:18:05;;;;;;;9.40;4.22;;;;;;;26.91;53.64;100740.94;4942185;28;20063;-78
2022/07/04 01:20:50;;;;;;;6.55;2.90;;;;;;;26.92;54.50;100742.50;4961437;28;20074;-78
2022/07/04 01:23:39;;;;;;;15.75;4.30;;;;;;;27.02;54.03;100741.50;4954268;28;20045;-77
2022/07/04 01:26:27;;;;;;;13.07;3.72;;;;;;;27.13;53.56;100735.72;4958903;28;20046;-77
2022/07/04 01:29:12;;;;;;;5.35;3.60;;;;;;;27.19;53.46;100745.97;4972677;28;20054;-77
2022/07/04 01:31:56;;;;;;;7.63;3.33;;;;;;;27.32;52.98;100742.56;4963924;28;20054;-76
2022/07/04 01:34:41;;;;;;;4.68;3.00;;;;;;;27.36;52.39;100748.88;4955646;28;20058;-77
2022/07/04 01:37:26;;;;;;;10.10;3.45;;;;;;;27.12;52.76;100756.50;4955034;28;20045;-78
2022/07/04 01:40:12;;;;;;;7.53;3.72;;;;;;;27.26;53.04;100756.22;4962991;28;20050;-78
2022/07/04 01:42:58;;;;;;;8.02;3.50;;;;;;;27.27;52.42;100740.28;4960800;28;20042;-77
2022/07/04 01:45:43;;;;;;;9.05;3.63;;;;;;;27.27;51.98;100749.44;4956820;28;20070;-77
2022/07/04 01:48:28;;;;;;;6.03;3.38;;;;;;;27.30;51.81;100745.00;4956075;28;20515;-76
2022/07/04 01:51:13;;;;;;;7.80;3.20;;;;;;;27.24;51.83;100756.66;4973572;28;20455;-77
2022/07/04 01:54:00;;;;;;;13.25;3.97;;;;;;;27.21;52.30;100757.53;4960219;28;20047;-77
2022/07/04 01:56:45;;;;;;;12.65;3.60;;;;;;;27.18;52.73;100749.97;4971132;28;20043;-76
2022/07/04 02:02:33;;;;;;;8.20;3.25;;;;;;;27.36;51.97;100743.28;4955329;28;20050;-76
2022/07/04 02:05:18;;;;;;;10.65;3.20;;;;;;;27.41;52.06;100739.97;4968441;28;20629;-77
2022/07/04 02:08:08;;;;;;;11.52;3.75;;;;;;;27.37;52.23;100739.28;4970633;28;20057;-76
2022/07/04 02:10:53;;;;;;;4.30;3.28;;;;;;;27.23;52.44;100738.31;4972896;28;20069;-77
2022/07/04 02:13:38;;;;;;;8.82;3.80;;;;;;;27.09;52.76;100733.00;4961265;28;20105;-78
2022/07/04 02:16:23;;;;;;;7.70;4.18;;;;;;;27.07;52.75;100731.88;4953220;28;20054;-76
2022/07/04 02:19:09;;;;;;;7.15;3.55;;;;;;;27.13;52.49;100728.13;4962519;28;20058;-78
2022/07/04 02:21:54;;;;;;;7.20;3.35;;;;;;;26.91;53.15;100735.34;4954383;28;20058;-77
2022/07/04 02:24:40;;;;;;;8.90;3.80;;;;;;;26.90;53.27;100724.59;4969789;28;20054;-77
2022/07/04 02:27:25;;;;;;;9.43;4.00;;;;;;;26.82;53.71;100716.31;4947027;28;20050;-76
2022/07/04 02:30:11;;;;;;;12.82;4.50;;;;;;;26.72;53.91;100717.28;4937821;29;20524;-76
2022/07/04 02:32:55;;;;;;;10.85;4.38;;;;;;;26.49;54.54;100714.53;4949163;29;20493;-76
2022/07/04 02:35:40;;;;;;;9.52;3.78;;;;;;;26.41;54.65;100718.66;4934398;29;20052;-77
2022/07/04 02:38:24;;;;;;;;;;;;;;;26.45;54.75;100719.38;4937790;28;20055;-77
2022/07/04 02:41:09;;;;;;;6.78;3.28;;;;;;;26.49;54.75;100724.88;4954704;28;19914;-78
2022/07/04 02:43:53;;;;;;;14.25;4.32;;;;;;;26.44;54.69;100717.00;4959940;28;20047;-78
2022/07/04 02:46:38;;;;;;;7.13;3.80;;;;;;;26.43;54.72;100721.00;4964267;28;20043;-77
2022/07/04 02:49:23;;;;;;;11.80;4.10;;;;;;;26.26;54.95;100711.72;4972626;28;20067;-78
2022/07/04 02:52:08;;;;;;;7.75;3.38;;;;;;;26.35;54.82;100712.75;4972899;28;20072;-77
2022/07/04 02:54:53;;;;;;;12.75;3.55;;;;;;;26.32;54.42;100710.81;4962376;28;20066;-78
2022/07/04 02:57:37;;;;;;;9.82;4.70;;;;;;;26.23;54.55;100702.19;4953994;28;20508;-77
2022/07/04 03:00:22;;;;;;;12.65;4.68;;;;;;;26.12;55.28;100707.09;4954564;28;20065;-79
2022/07/04 03:03:07;;;;;;;5.03;3.92;;;;;;;26.13;55.27;100714.25;4956805;28;20114;-80
2022/07/04 03:05:53;;;;;;;9.43;3.97;;;;;;;26.16;55.40;100707.06;4967561;28;20042;-78
2022/07/04 03:08:38;;;;;;;6.05;3.83;;;;;;;26.06;55.40;100708.78;4956574;28;20042;-78
2022/07/04 03:11:23;;;;;;;9.32;3.85;;;;;;;26.09;55.81;100704.38;4934728;29;20050;-77
2022/07/04 03:14:08;;;;;;;11.73;4.20;;;;;;;26.07;55.47;100706.78;4950258;29;20054;-78
2022/07/04 03:16:52;;;;;;;8.77;4.22;;;;;;;26.15;55.40;100711.06;4938614;29;20062;-77
2022/07/04 03:19:36;;;;;;;10.15;3.72;;;;;;;26.03;55.97;100715.22;4952033;29;20062;-77
2022/07/04 03:22:21;;;;;;;7.00;3.78;;;;;;;26.23;55.60;100718.91;4943448;28;20424;-78
2022/07/04 03:25:06;;;;;;;7.70;3.92;;;;;;;26.30;54.90;100721.59;4951543;28;20059;-79
2022/07/04 03:27:51;;;;;;;6.97;3.65;;;;;;;26.42;54.54;100725.00;4960563;28;20115;-78
2022/07/04 03:30:36;;;;;;;12.98;4.28;;;;;;;26.26;55.19;100723.63;4974089;28;20419;-79
2022/07/04 03:33:20;;;;;;;9.88;4.00;;;;;;;26.15;55.35;100728.56;4959851;28;20417;-77
2022/07/04 03:36:05;;;;;;;7.38;4.43;;;;;;;26.15;55.06;100722.22;4955972;28;20428;-76
2022/07/04 03:38:50;;;;;;;11.00;3.67;;;;;;;26.09;55.42;100723.88;4941953;29;20050;-77
2022/07/04 03:41:36;;;;;;;8.93;5.45;;;;;;;26.03;55.82;100720.78;4937424;29;20051;-77
2022/07/04 03:44:20;;;;;;;14.10;4.22;;;;;;;25.97;55.33;100728.03;4950996;28;20042;-78
2022/07/04 03:47:06;;;;;;;10.63;5.40;;;;;;;25.94;55.42;100728.88;4967524;28;20042;-76
2022/07/04 03:49:51;;;;;;;8.15;4.22;;;;;;;25.90;55.82;100728.94;4962828;28;20415;-77
2022/07/04 03:52:36;;;;;;;11.02;4.35;;;;;;;25.80;56.15;100732.63;4958426;28;20059;-77
2022/07/04 03:55:21;;;;;;;7.95;4.20;;;;;;;25.94;55.66;100746.41;4964764;28;20039;-78
2022/07/04 03:58:05;;;;;;;10.93;4.70;;;;;;;26.02;55.36;100761.00;4968173;28;20067;-78
2022/07/04 04:00:50;;;;;;;10.77;3.60;;;;;;;26.03;55.32;100748.66;4937122;29;20055;-78
2022/07/04 04:06:38;;;;;;;8.93;3.50;;;;;;;26.10;55.16;100742.19;4958233;28;20042;-77
2022/07/04 04:09:24;;;;;;;12.20;4.68;;;;;;;26.17;54.98;100748.44;4948949;28;20055;-77
2022/07/04 04:12:09;;;;;;;7.30;3.60;;;;;;;26.38;54.32;100748.16;4955834;29;20039;-79
2022/07/04 04:14:54;;;;;;;9.88;3.70;;;;;;;26.51;53.49;100753.94;4957450;28;20062;-77
2022/07/04 04:17:39;;;;;;;18.73;4.47;;;;;;;26.46;53.68;100751.63;4944517;29;20626;-78
2022/07/04 04:20:24;;;;;;;94.97;7.20;;;;;;;26.68;53.59;100754.84;4954628;28;20171;-77
2022/07/04 04:23:08;;;;;;;12.20;3.80;;;;;;;26.66;53.59;100751.72;4963432;28;20035;-78
2022/07/04 04:25:53;;;;;;;12.50;3.47;;;;;;;26.80;53.36;100748.66;4959896;28;20054;-78
2022/07/04 04:28:37;;;;;;;9.85;4.38;;;;;;;26.83;53.36;100748.59;4958146;28;20508;-78
2022/07/04 04:31:22;;;;;;;10.63;3.13;;;;;;;26.70;53.71;100744.84;4961994;28;20050;-78
2022/07/04 04:34:07;;;;;;;11.02;3.38;;;;;;;26.96;52.82;100743.22;4975199;28;20043;-77
2022/07/04 04:36:52;;;;;;;11.02;3.83;;;;;;;26.93;53.03;100743.28;4971679;28;20047;-77
2022/07/04 04:39:37;;;;;;;11.35;3.50;;;;;;;26.95;53.32;100749.25;4941604;23;20054;-80
2022/07/04 04:42:21;;;;;;;11.45;3.90;;;;;;;27.01;53.43;100748.31;4935817;29;20052;-80
2022/07/04 04:45:06;;;;;;;35.58;4.57;;;;;;;27.22;52.72;100759.09;4944739;29;20051;-80
2022/07/04 04:47:53;;;;;;;20.17;4.38;;;;;;;27.35;52.49;100753.66;4937823;29;20048;-81
2022/07/04 04:50:37;;;;;;;8.27;3.65;;;;;;;27.50;52.08;100754.19;4946130;29;20050;-80
2022/07/04 04:53:25;;;;;;;8.27;3.15;;;;;;;27.70;51.61;100752.16;4933538;29;20052;-80
2022/07/04 04:56:10;;;;;;;7.70;2.35;;;;;;;27.95;48.49;100749.63;4948902;28;20067;-80
2022/07/04 04:58:55;;;;;;;7.10;2.72;;;;;;;28.06;48.09;100752.97;4937608;29;20047;-80
2022/07/04 05:01:40;;;;;;;14.50;2.72;;;;;;;28.07;47.60;100760.16;4941121;29;20051;-79
2022/07/04 05:04:25;;;;;;;10.13;1.90;;;;;;;28.29;47.00;100765.28;4945830;29;20412;-80
2022/07/04 05:07:10;;;;;;;5.90;2.65;;;;;;;28.38;46.66;100766.25;4958907;29;20421;-79
2022/07/04 05:09:58;;;;;;;23.25;2.95;;;;;;;28.55;45.46;100769.84;4955929;28;20050;-78
2022/07/04 05:12:43;;;;;;;11.90;2.55;;;;;;;28.65;45.27;100760.38;4953824;28;20527;-79
2022/07/04 05:15:28;;;;;;;13.65;2.97;;;;;;;28.76;44.93;100757.34;4959859;29;20047;-79
2022/07/04 05:18:13;;;;;;;10.75;2.60;;;;;;;28.86;44.92;100754.28;4962582;28;20043;-79
2022/07/04 05:20:59;;;;;;;11.57;2.85;;;;;;;29.05;44.68;100760.22;4930775;29;20054;-79
2022/07/04 05:23:43;;;;;;;9.55;3.20;;;;;;;29.10;44.83;100748.47;4939512;29;20036;-78
2022/07/04 05:26:29;;;;;;;12.10;2.70;;;;;;;29.08;45.06;100748.13;4938499;29;20527;-79
2022/07/04 05:29:14;;;;;;;8.20;2.60;;;;;;;29.13;44.59;100739.19;4949603;29;20067;-82
2022/07/04 05:31:58;;;;;;;21.05;3.63;;;;;;;29.15;43.76;100747.94;4952572;29;20047;-80
2022/07/04 05:34:43;;;;;;;11.15;4.55;;;;;;;29.20;44.25;100744.59;4935386;29;20497;-82
2022/07/04 05:37:28;;;;;;;6.30;2.17;;;;;;;29.28;44.35;100746.75;4933805;29;20040;-79
2022/07/04 05:40:13;;;;;;;45.38;5.53;;;;;;;29.30;42.83;100749.13;4939832;29;20172;-80
2022/07/04 05:42:58;;;;;;;10.63;2.78;;;;;;;29.43;43.12;100747.16;4941818;29;20050;-80
2022/07/04 05:45:44;;;;;;;12.68;2.83;;;;;;;29.58;42.54;100751.13;4945464;28;20042;-80
2022/07/04 05:48:29;;;;;;;9.90;3.55;;;;;;;29.59;42.87;100763.13;4937790;29;20039;-80
2022/07/04 05:51:14;;;;;;;9.80;2.58;;;;;;;29.61;43.40;100758.63;4936671;28;20058;-81
2022/07/04 05:53:59;;;;;;;10.88;2.65;;;;;;;29.74;41.97;100753.88;4957263;28;20047;-80
2022/07/04 05:56:44;;;;;;;8.65;2.38;;;;;;;29.76;42.60;100754.19;4940211;29;20042;-81
2022/07/04 05:59:29;;;;;;;17.15;4.97;;;;;;;29.86;41.69;100757.94;4937110;29;20046;-81
2022/07/04 06:02:15;;;;;;;17.98;3.45;;;;;;;29.96;41.70;100756.06;4940282;29;20063;-80
2022/07/04 06:05:00;;;;;;;9.68;2.50;;;;;;;30.08;41.64;100749.66;4953223;28;20051;-81
2022/07/04 06:07:45;;;;;;;10.57;2.70;;;;;;;30.17;41.10;100750.56;4945873;28;20408;-81
2022/07/04 06:10:30;;;;;;;5.93;2.65;;;;;;;30.32;40.64;100747.31;4950327;28;20054;-81
2022/07/04 06:13:15;;;;;;;13.48;2.80;;;;;;;30.47;40.08;100746.44;4951426;29;20519;-82
2022/07/04 06:16:00;;;;;;;10.38;2.38;;;;;;;30.54;40.06;100746.19;4959549;29;20120;-82
2022/07/04 06:18:47;;;;;;;6.25;2.15;;;;;;;30.61;40.21;100750.00;4960151;28;20050;-82
2022/07/04 06:21:32;;;;;;;10.70;2.45;;;;;;;30.68;38.27;100758.19;4943851;29;20050;-82
2022/07/04 06:24:17;;;;;;;10.85;2.65;;;;;;;30.83;39.32;100750.88;4950636;29;20046;-81
2022/07/04 06:27:03;;;;;;;17.13;2.70;;;;;;;30.88;39.25;100764.31;4948064;28;20047;-80
2022/07/04 06:29:47;;;;;;;9.18;2.17;;;;;;;31.00;38.63;100757.88;4951250;28;20054;-80
2022/07/04 06:32:50;;;;;;;4.60;2.20;;;;;;;30.99;36.15;100759.88;4934337;29;20051;-81
2022/07/04 06:35:49;;;;;;;20.35;2.45;;;;;;;31.15;37.97;100750.53;4920412;29;20063;-81
2022/07/04 06:38:34;;;;;;;3.45;1.95;;;;;;;30.99;37.87;100751.47;4937638;29;20047;-83
2022/07/04 06:41:19;;;;;;;3.60;2.38;;;;;;;31.32;38.90;100746.31;4940266;29;20047;-83
2022/07/04 06:44:04;;;;;;;23.08;2.85;;;;;;;31.35;36.38;100751.00;4957949;29;20454;-81
2022/07/04 06:46:50;;;;;;;14.20;1.92;;;;;;;31.53;36.39;100746.75;4935473;29;20040;-81
2022/07/04 06:49:35;;;;;;;15.07;3.85;;;;;;;31.48;36.79;100736.91;4948068;29;20042;-81
2022/07/04 06:52:19;;;;;;;6.22;2.67;;;;;;;31.41;36.47;100735.13;4939052;29;20040;-81
2022/07/04 06:55:06;;;;;;;9.18;2.33;;;;;;;31.36;36.50;100732.91;4953798;29;20050;-81
2022/07/04 06:57:50;;;;;;;6.30;2.47;;;;;;;31.26;37.41;100714.41;4951820;28;20051;-81
2022/07/04 07:00:36;;;;;;;8.75;2.00;;;;;;;31.17;37.75;100717.16;4936748;29;20059;-82
2022/07/04 07:03:20;;;;;;;7.05;1.58;;;;;;;31.15;37.50;100716.03;4938009;29;20043;-80
2022/07/04 07:06:05;;;;;;;3.55;2.15;;;;;;;31.10;37.63;100716.63;4940699;29;20453;-81
2022/07/04 07:08:49;;;;;;;7.25;2.17;;;;;;;31.13;37.48;100724.94;4940587;29;20063;-81
2022/07/04 07:11:34;;;;;;;6.63;2.00;;;;;;;31.11;37.80;100733.03;4948688;29;20424;-82
2022/07/04 07:14:19;;;;;;;2.67;1.77;;;;;;;31.11;37.73;100724.59;4938116;29;20046;-81
2022/07/04 07:17:04;;;;;;;9.38;2.47;;;;;;;31.13;37.32;100724.94;4949082;29;20054;-81
2022/07/04 07:19:48;;;;;;;8.88;2.55;;;;;;;31.12;37.03;100723.38;4940609;29;20046;-81
2022/07/04 07:22:33;;;;;;;6.15;1.75;;;;;;;31.24;35.83;100713.31;4941770;29;20054;-82
2022/07/04 07:25:18;;;;;;;6.38;2.03;;;;;;;31.29;35.94;100713.47;4940718;29;20043;-81
2022/07/04 07:28:03;;;;;;;9.20;1.83;;;;;;;31.42;34.26;100705.00;4941105;29;20165;-81
2022/07/04 07:30:48;;;;;;;10.80;1.65;;;;;;;31.41;34.61;100712.63;4949340;29;20050;-81
2022/07/04 07:33:33;;;;;;;3.42;1.40;;;;;;;31.50;35.10;100713.94;4945151;29;20420;-81
2022/07/04 07:36:18;;;;;;;23.13;2.92;;;;;;;31.61;34.27;100717.16;4951897;29;20042;-82
2022/07/04 07:39:03;;;;;;;9.70;2.42;;;;;;;31.66;33.86;100708.13;4950537;28;20062;-81
2022/07/04 07:41:49;;;;;;;7.07;1.58;;;;;;;31.58;34.79;100710.44;4938739;29;20046;-81
2022/07/04 07:44:34;;;;;;;7.28;1.70;;;;;;;31.65;34.42;100700.91;4938278;29;20043;-80
2022/07/04 07:47:18;;;;;;;19.33;1.92;;;;;;;31.80;33.78;100699.91;4938262;29;20527;-79
2022/07/04 07:50:04;;;;;;;6.55;1.30;;;;;;;31.74;34.55;100707.41;4937856;29;20536;-79
2022/07/04 07:52:49;;;;;;;97.05;21.40;;;;;;;31.67;34.79;100710.47;4940370;29;20063;-80
2022/07/04 07:55:34;;;;;;;74.70;16.05;;;;;;;31.72;34.86;100704.25;4948081;29;20039;-80
2022/07/04 07:58:19;;;;;;;6.45;2.03;;;;;;;31.79;34.26;100715.25;4934047;29;20031;-79
2022/07/04 08:01:04;;;;;;;16.30;1.60;;;;;;;31.87;34.02;100721.38;4940143;29;20531;-79
2022/07/04 08:07:14;;;;;;;10.00;2.20;;;;;;;31.96;33.88;100724.22;4939980;29;20054;-79
2022/07/04 08:09:59;;;;;;;22.98;6.97;;;;;;;31.91;33.99;100719.19;4939831;29;20040;-79
2022/07/04 08:12:44;;;;;;;11.43;2.67;;;;;;;31.98;33.54;100720.94;4953353;28;20043;-79
2022/07/04 08:15:29;;;;;;;10.10;2.10;;;;;;;32.08;33.08;100723.34;4950960;29;20408;-79
2022/07/04 08:18:15;;;;;;;5.47;1.38;;;;;;;32.14;32.89;100724.34;4953676;28;20063;-79
2022/07/04 08:21:01;;;;;;;4.07;1.70;;;;;;;32.17;32.48;100723.41;4951812;28;20051;-79
2022/07/04 08:23:46;;;;;;;5.95;1.50;;;;;;;32.14;33.06;100720.72;4972293;28;20062;-79
2022/07/04 08:26:30;;;;;;;7.82;1.73;;;;;;;32.16;32.25;100723.84;4958533;29;20229;-79
2022/07/04 08:29:16;;;;;;;5.15;2.03;;;;;;;32.15;32.23;100728.69;4958363;28;20054;-79
2022/07/04 08:32:00;;;;;;;7.47;2.42;;;;;;;32.09;32.58;100730.53;4958782;29;20050;-79
2022/07/04 08:34:46;;;;;;;15.02;4.43;;;;;;;32.06;33.07;100723.00;4957759;29;20050;-79
2022/07/04 08:37:31;;;;;;;4.78;2.55;;;;;;;32.07;32.81;100727.38;4958118;29;20042;-79
2022/07/04 08:40:16;;;;;;;7.50;2.95;;;;;;;32.10;32.96;100739.75;4955372;28;20047;-79
2022/07/04 08:43:02;;;;;;;6.00;2.20;;;;;;;32.08;32.45;100731.00;4950597;29;20050;-79
2022/07/04 08:45:49;;;;;;;9.70;2.10;;;;;;;32.18;33.52;100727.00;4960224;28;20507;-79
2022/07/04 08:48:34;;;;;;;6.57;1.55;;;;;;;32.14;33.50;100724.34;4957884;28;20050;-79
2022/07/04 08:51:43;;;;;;;9.48;3.55;;;;;;;32.16;33.15;100715.41;4962841;28;20050;-79
2022/07/04 09:00:38;;;;;;;7.47;2.08;;;;;;;32.31;32.11;100716.38;4947518;29;20527;-79
2022/07/04 09:03:24;;;;;;;4.35;1.25;;;;;;;32.34;31.79;100720.31;4942056;29;20055;-79
2022/07/04 09:06:10;;;;;;;6.10;1.85;;;;;;;32.37;31.91;100719.38;4949923;29;20539;-79
2022/07/04 09:08:55;;;;;;;12.27;1.88;;;;;;;32.37;33.64;100720.16;4943251;28;20573;-79
2022/07/04 09:11:39;;;;;;;11.40;1.95;;;;;;;32.35;34.75;100717.06;4924931;29;20040;-79
2022/07/04 09:14:24;;;;;;;10.70;1.95;;;;;;;32.31;36.31;100724.84;4928132;29;20040;-79
2022/07/04 09:17:09;;;;;;;5.28;1.73;;;;;;;32.32;36.76;100746.13;4944934;29;20066;-80
2022/07/04 09:20:15;;;;;;;4.93;1.50;;;;;;;32.34;35.87;100762.56;4949102;29;20054;-78
2022/07/04 09:22:59;;;;;;;5.22;2.10;;;;;;;32.28;35.90;100784.09;4953820;28;20035;-79
2022/07/04 09:25:45;;;;;;;6.60;2.65;;;;;;;32.22;36.57;100792.38;4969122;28;20051;-79
2022/07/04 09:28:30;;;;;;;14.70;2.67;;;;;;;32.15;36.19;100781.41;4925373;29;20055;-81
2022/07/04 09:31:26;;;;;;;4.85;2.42;;;;;;;32.13;35.99;100784.69;4938207;29;20039;-79
2022/07/04 09:34:11;;;;;;;7.70;2.47;;;;;;;32.07;36.40;100789.31;4930097;29;20055;-80
2022/07/04 09:36:56;;;;;;;5.88;1.85;;;;;;;32.03;36.32;100771.78;4935666;29;20424;-78
2022/07/04 09:39:45;;;;;;;8.27;1.77;;;;;;;32.06;35.96;100768.03;4939917;28;20047;-78
2022/07/04 09:42:41;;;;;;;5.45;2.08;;;;;;;32.06;36.55;100764.44;4932277;29;20042;-79
2022/07/04 09:45:28;;;;;;;3.35;1.65;;;;;;;32.02;36.07;100758.16;4934905;29;20425;-80
2022/07/04 09:48:13;;;;;;;7.22;1.75;;;;;;;32.02;35.83;100758.16;4946767;28;20043;-79
2022/07/04 09:50:57;;;;;;;9.35;2.53;;;;;;;32.02;36.43;100753.31;4923717;29;20055;-80
2022/07/04 09:53:43;;;;;;;8.50;2.00;;;;;;;31.98;36.12;100755.50;4931977;29;20067;-80
2022/07/04 09:56:45;;;;;;;6.85;2.03;;;;;;;32.01;37.92;100748.94;4927057;29;20544;-78
2022/07/04 09:59:33;;;;;;;7.03;1.88;;;;;;;31.98;36.69;100749.88;4932278;29;20050;-78
2022/07/04 10:02:19;;;;;;;5.00;1.70;;;;;;;32.06;36.75;100755.97;4937428;29;20058;-78
2022/07/04 10:05:07;;;;;;;6.22;1.90;;;;;;;32.09;36.44;100755.06;4931489;29;20048;-78
2022/07/04 10:07:55;;;;;;;5.35;2.38;;;;;;;31.99;36.92;100762.69;4926198;29;20409;-78
2022/07/04 10:10:40;;;;;;;22.80;3.45;;;;;;;32.06;36.42;100765.22;4926098;29;20059;-77
2022/07/04 10:13:25;;;;;;;11.30;2.20;;;;;;;32.06;37.04;100762.41;4930322;29;20046;-77
2022/07/04 10:16:11;;;;;;;8.65;2.20;;;;;;;32.12;35.65;100771.84;4932653;29;20048;-79
2022/07/04 10:18:57;;;;;;;6.05;1.60;;;;;;;32.19;35.74;100767.97;4934424;29;20051;-77
2022/07/04 10:21:42;;;;;;;9.60;2.42;;;;;;;32.20;35.68;100761.84;4941932;29;20084;-78
2022/07/04 10:24:26;;;;;;;7.55;2.20;;;;;;;32.18;35.97;100764.38;4939833;29;20043;-79
2022/07/04 10:27:11;;;;;;;6.10;2.10;;;;;;;32.19;36.06;100767.97;4934104;29;20532;-79
2022/07/04 10:29:57;;;;;;;5.03;2.33;;;;;;;32.08;37.31;100762.72;4940880;29;20050;-79
2022/07/04 10:32:45;;;;;;;4.82;2.13;;;;;;;32.07;37.24;100749.91;4942785;29;20074;-79
2022/07/04 10:35:56;;;;;;;8.73;2.00;;;;;;;32.11;37.28;100758.22;4936678;29;20047;-78
2022/07/04 10:38:50;;;;;;;5.20;2.08;;;;;;;32.06;37.49;100756.78;4923399;29;20051;-78
2022/07/04 10:41:35;;;;;;;3.85;1.80;;;;;;;32.02;37.75;100756.13;4975344;23;20059;-65
2022/07/04 10:44:23;;;;;;;3.78;1.95;;;;;;;32.06;37.48;100753.97;4938546;29;20059;-65
2022/07/04 10:47:23;;;;;;;10.35;2.72;;;;;;;32.01;37.98;100754.56;4934323;29;20055;-64
2022/07/04 10:50:08;;;;;;;13.35;2.45;;;;;;;31.98;37.93;100749.88;4929059;29;20047;-65
2022/07/04 10:53:09;;;;;;;10.57;2.13;;;;;;;32.13;37.10;100734.03;4929294;29;20040;-64
2022/07/04 10:56:14;;;;;;;8.95;1.90;;;;;;;32.34;34.60;100734.41;4929130;29;20031;-64
2022/07/04 10:59:08;;;;;;;7.88;2.30;;;;;;;32.28;35.98;100739.06;4920357;29;20063;-64
2022/07/04 11:02:05;;;;;;;9.32;2.40;;;;;;;32.16;37.43;100732.28;4924633;29;20529;-64
2022/07/04 11:05:01;;;;;;;7.93;1.98;;;;;;;32.01;37.93;100732.06;4928831;29;20515;-64
2022/07/04 11:07:46;;;;;;;6.25;2.45;;;;;;;32.00;38.08;100727.66;4928485;29;20051;-64
2022/07/04 11:10:33;;;;;;;8.40;2.25;;;;;;;32.04;37.98;100727.53;4933003;29;20042;-65
2022/07/04 11:13:19;;;;;;;7.13;2.10;;;;;;;32.09;37.31;100727.72;4918596;29;20071;-64
2022/07/04 11:16:05;;;;;;;6.53;1.80;;;;;;;31.95;37.83;100717.00;4920645;29;20051;-64
2022/07/04 11:18:50;;;;;;;6.47;1.85;;;;;;;31.92;38.06;100717.94;4925985;29;20047;-64
2022/07/04 11:21:37;;;;;;;7.60;2.13;;;;;;;31.84;38.21;100716.66;4926326;29;20055;-64
2022/07/04 11:24:23;;;;;;;3.05;1.60;;;;;;;31.84;38.34;100716.66;4925103;29;20407;-64
2022/07/04 11:27:09;;;;;;;4.45;1.73;;;;;;;31.72;38.29;100706.28;4932878;29;20063;-65
2022/07/04 11:29:55;;;;;;;6.32;2.03;;;;;;;31.68;38.60;100697.22;4925026;29;20059;-64
2022/07/04 11:32:40;;;;;;;2.22;1.60;;;;;;;31.67;38.46;100704.06;4920392;29;20175;-65
2022/07/04 11:35:25;;;;;;;4.28;1.70;;;;;;;31.68;38.37;100695.19;4922785;29;20132;-65
2022/07/04 11:38:10;;;;;;;7.57;2.00;;;;;;;31.66;38.11;100689.22;4928748;28;20046;-64
2022/07/04 11:47:15;;;;;;;4.38;1.75;;;;;;;31.66;38.29;100672.34;4940739;29;20534;-64
2022/07/04 11:50:00;;;;;;;4.18;1.73;;;;;;;31.75;38.17;100671.59;4935123;29;20055;-65
2022/07/04 11:52:48;;;;;;;5.07;1.50;;;;;;;31.80;37.81;100671.78;4936000;29;20062;-64
2022/07/04 11:55:33;;;;;;;4.28;1.67;;;;;;;31.85;37.48;100670.41;4936350;29;20055;-64
2022/07/04 11:58:18;;;;;;;6.22;1.50;;;;;;;31.90;37.40;100671.84;4935830;29;20042;-65
2022/07/04 12:01:03;;;;;;;2.33;1.42;;;;;;;31.96;37.33;100673.56;4936300;29;20058;-64
2022/07/04 12:03:48;;;;;;;7.45;1.55;;;;;;;31.93;37.63;100670.91;4934179;29;20043;-64
2022/07/04 12:06:33;;;;;;;4.75;1.80;;;;;;;31.96;37.24;100682.00;4932067;29;20411;-64
2022/07/04 12:09:18;;;;;;;4.38;1.42;;;;;;;31.92;37.25;100680.59;4947213;28;20050;-64
2022/07/04 12:12:04;;;;;;;3.30;1.95;;;;;;;31.93;37.02;100674.50;4944874;29;20055;-64
2022/07/04 12:15:01;;;;;;;2.97;1.33;;;;;;;32.01;36.71;100664.53;4935924;29;20153;-64
2022/07/04 12:17:50;;;;;;;8.88;1.70;;;;;;;32.05;35.64;100659.53;4936123;29;20058;-64
2022/07/04 12:20:35;;;;;;;9.52;2.42;;;;;;;32.22;34.89;100660.06;4935819;29;20414;-64
2022/07/04 12:23:26;;;;;;;6.22;1.60;;;;;;;32.19;35.67;100669.47;4936101;29;20047;-65
2022/07/04 12:26:11;;;;;;;1.67;1.33;;;;;;;32.19;35.90;100667.44;4941232;29;20043;-64
2022/07/04 12:28:56;;;;;;;4.65;1.77;;;;;;;32.38;34.86;100659.03;4939471;29;20055;-64
2022/07/04 12:31:43;;;;;;;6.28;1.70;;;;;;;32.41;35.27;100649.66;4935352;29;20043;-64
2022/07/04 12:34:30;;;;;;;6.30;1.50;;;;;;;32.43;33.98;100639.47;4932615;29;20066;-64
2022/07/04 12:37:17;;;;;;;5.65;1.80;;;;;;;32.35;35.77;100638.22;4932943;29;20051;-64
2022/07/04 12:40:09;;;;;;;5.47;1.67;;;;;;;32.41;35.76;100621.50;4933741;29;20133;-64
2022/07/04 12:42:58;;;;;;;4.32;1.50;;;;;;;32.39;35.87;100633.22;4931649;29;20046;-64
2022/07/04 12:45:46;;;;;;;5.18;1.17;;;;;;;32.37;35.96;100630.06;4934690;29;20046;-64
2022/07/04 12:48:31;;;;;;;4.80;1.52;;;;;;;32.39;35.11;100621.19;4931533;29;20050;-64
2022/07/04 12:51:31;;;;;;;3.28;1.80;;;;;;;32.62;34.22;100617.72;4921203;29;20074;-65
2022/07/04 12:54:17;;;;;;;7.38;1.77;;;;;;;32.96;33.01;100617.44;4927030;29;20051;-64
2022/07/04 12:57:11;;;;;;;4.65;1.95;;;;;;;33.27;31.64;100611.59;4924912;29;20047;-64
2022/07/04 12:59:56;;;;;;;74.70;4.72;;;;;;;33.49;30.55;100605.72;4926405;29;20051;-64
2022/07/04 13:02:41;;;;;;;15.75;2.38;;;;;;;33.61;30.06;100603.97;4920074;29;20047;-64
2022/07/04 13:05:26;;;;;;;6.18;1.50;;;;;;;33.59;30.87;100600.84;4926255;29;20245;-65
2022/07/04 13:08:11;;;;;;;3.50;1.98;;;;;;;33.63;30.62;100596.56;4935201;29;20063;-65
2022/07/04 13:13:59;;;;;;;3.40;1.55;;;;;;;33.31;33.12;100584.03;4932169;29;20043;-64